Time;durP1;ratioP1;P1;durP2;ratioP2;P2;SDS_P1;SDS_P2;PMS_P1;PMS_P2;Temp;Humidity;BMP_temperature;BMP_pressure;BME280_temperature;BME280_humidity;BME280_pressure;Samples;Min_cycle;Max_cycle;Signal;HPM_P1;HPM_P2
2022/08/29 00:02:18;;;;;;;6.50;5.47;;;22.50;99.90;;;;;;6181513;23;20007;-80
2022/08/29 00:04:43;;;;;;;6.70;6.10;;;22.50;99.90;;;;;;6182976;23;20009;-80
2022/08/29 00:07:09;;;;;;;5.95;5.47;;;22.50;99.90;;;;;;6183583;23;20075;-80
2022/08/29 00:09:35;;;;;;;5.75;5.32;;;22.50;99.90;;;;;;6157058;23;20009;-80
2022/08/29 00:12:00;;;;;;;5.63;5.07;;;22.50;99.90;;;;;;6183510;23;20421;-80
2022/08/29 00:14:27;;;;;;;6.65;5.45;;;22.50;99.90;;;;;;6183639;23;20008;-80
2022/08/29 00:16:53;;;;;;;5.68;5.18;;;22.40;99.90;;;;;;6157269;23;20016;-80
2022/08/29 00:19:19;;;;;;;5.65;5.22;;;22.40;99.90;;;;;;6156905;23;20084;-80
2022/08/29 00:21:45;;;;;;;5.75;5.13;;;22.50;99.90;;;;;;6184864;23;20036;-80
2022/08/29 00:24:10;;;;;;;5.60;5.20;;;22.40;99.90;;;;;;6160598;23;20445;-80
2022/08/29 00:26:36;;;;;;;6.07;5.57;;;22.40;99.90;;;;;;6187031;23;20585;-80
2022/08/29 00:29:02;;;;;;;5.60;5.13;;;22.40;99.90;;;;;;6186896;23;20487;-80
2022/08/29 00:31:28;;;;;;;6.68;5.68;;;22.40;99.90;;;;;;6160698;23;20061;-80
2022/08/29 00:33:56;;;;;;;6.72;4.68;;;22.40;99.90;;;;;;6160667;23;20341;-79
2022/08/29 00:36:22;;;;;;;6.25;5.75;;;22.40;99.90;;;;;;6160665;23;20052;-79
2022/08/29 00:38:48;;;;;;;5.88;5.47;;;22.30;99.90;;;;;;6186338;23;20085;-80
2022/08/29 00:41:14;;;;;;;6.13;5.63;;;22.30;99.90;;;;;;6185536;23;20029;-80
2022/08/29 00:43:40;;;;;;;5.75;5.32;;;22.40;99.90;;;;;;6185699;23;20060;-79
2022/08/29 00:46:41;;;;;;;5.47;5.07;;;22.30;99.90;;;;;;6159365;23;20005;-80
2022/08/29 00:49:25;;;;;;;11.15;5.20;;;22.30;99.90;;;;;;6150601;23;20452;-79
2022/08/29 00:51:52;;;;;;;5.80;5.28;;;22.30;99.90;;;;;;6185562;23;20007;-80
2022/08/29 00:54:18;;;;;;;6.05;5.55;;;22.40;99.90;;;;;;6185481;23;20024;-80
2022/08/29 00:56:45;;;;;;;5.43;5.03;;;22.30;99.90;;;;;;6185452;23;20005;-80
2022/08/29 00:59:17;;;;;;;7.78;5.30;;;22.30;99.90;;;;;;6185113;23;20009;-80
2022/08/29 01:01:43;;;;;;;5.97;5.47;;;22.30;99.90;;;;;;6185069;23;20005;-80
2022/08/29 01:04:10;;;;;;;6.30;5.82;;;22.30;99.90;;;;;;6184409;23;20001;-80
2022/08/29 01:06:38;;;;;;;5.97;5.47;;;22.30;99.90;;;;;;6183171;23;20032;-80
2022/08/29 01:09:05;;;;;;;6.97;6.28;;;22.30;99.90;;;;;;6181774;23;20373;-80
2022/08/29 01:14:19;;;;;;;5.50;5.10;;;22.30;99.90;;;;;;6181192;23;20023;-80
2022/08/29 01:16:46;;;;;;;5.88;5.15;;;22.20;99.90;;;;;;6154985;23;20512;-80
2022/08/29 01:19:26;;;;;;;6.18;5.68;;;22.20;99.90;;;;;;6154779;23;20528;-80
2022/08/29 01:22:01;;;;;;;7.82;5.47;;;22.20;99.90;;;;;;6155265;23;20005;-80
2022/08/29 01:24:38;;;;;;;5.95;5.45;;;22.20;99.90;;;;;;6181276;23;20051;-80
2022/08/29 01:27:05;;;;;;;10.07;6.43;;;22.20;99.90;;;;;;6181187;23;19997;-80
2022/08/29 01:29:30;;;;;;;8.13;5.88;;;22.10;99.90;;;;;;6181089;23;20028;-80
2022/08/29 01:31:56;;;;;;;5.57;5.28;;;22.10;99.90;;;;;;6154885;23;20425;-80
2022/08/29 01:34:23;;;;;;;6.28;5.68;;;22.10;99.90;;;;;;6154677;23;20005;-80
2022/08/29 01:37:11;;;;;;;6.05;5.38;;;22.10;99.90;;;;;;6154649;23;20009;-80
2022/08/29 01:39:40;;;;;;;6.15;5.57;;;22.10;99.90;;;;;;6180726;23;20076;-80
2022/08/29 01:42:12;;;;;;;6.28;5.75;;;22.10;99.90;;;;;;6181197;23;20036;-80
2022/08/29 01:44:39;;;;;;;5.32;4.93;;;22.10;99.90;;;;;;6180561;23;20349;-80
2022/08/29 01:47:06;;;;;;;6.20;5.47;;;22.10;99.90;;;;;;6154793;23;20012;-80
2022/08/29 01:49:34;;;;;;;5.80;5.40;;;22.10;99.90;;;;;;6182946;23;20021;-80
2022/08/29 01:52:01;;;;;;;5.97;5.15;;;22.20;99.90;;;;;;6156771;23;20314;-80
2022/08/29 01:54:27;;;;;;;6.05;5.55;;;22.20;99.90;;;;;;6183144;23;20008;-80
2022/08/29 01:56:53;;;;;;;6.80;5.75;;;22.20;99.90;;;;;;6157034;23;20016;-80
2022/08/29 01:59:22;;;;;;;6.60;6.03;;;22.20;99.90;;;;;;6183070;23;20005;-80
2022/08/29 02:02:16;;;;;;;5.47;5.07;;;22.20;99.90;;;;;;6182867;23;20060;-80
2022/08/29 02:04:46;;;;;;;5.35;5.00;;;22.20;99.90;;;;;;6099411;23;1199524;-80
2022/08/29 02:07:12;;;;;;;6.38;5.40;;;22.20;99.90;;;;;;6183098;23;20009;-80
2022/08/29 02:09:39;;;;;;;5.32;4.93;;;22.20;99.90;;;;;;6182964;23;20060;-80
2022/08/29 02:12:05;;;;;;;6.03;5.53;;;22.20;99.90;;;;;;6184516;23;20008;-80
2022/08/29 02:14:33;;;;;;;5.75;5.25;;;22.20;99.90;;;;;;6184652;23;20441;-80
2022/08/29 02:17:01;;;;;;;6.72;5.20;;;22.20;99.90;;;;;;6183161;23;20079;-80
2022/08/29 02:19:27;;;;;;;5.55;5.15;;;22.20;99.90;;;;;;6182866;23;20038;-80
2022/08/29 02:21:53;;;;;;;5.70;5.30;;;22.20;99.90;;;;;;6182886;23;20002;-80
2022/08/29 02:24:19;;;;;;;6.07;5.60;;;22.20;99.90;;;;;;6182997;23;20016;-80
2022/08/29 02:26:44;;;;;;;5.75;5.15;;;22.20;99.90;;;;;;6184259;23;20007;-80
2022/08/29 02:29:11;;;;;;;5.72;5.25;;;22.20;99.90;;;;;;6184561;23;20001;-80
2022/08/29 02:31:39;;;;;;;5.80;4.93;;;22.20;99.90;;;;;;6183067;23;20003;-80
2022/08/29 02:34:06;;;;;;;5.38;4.88;;;22.20;99.90;;;;;;6182830;23;20039;-80
2022/08/29 02:36:32;;;;;;;5.72;5.22;;;22.20;99.90;;;;;;6184100;23;20433;-80
2022/08/29 02:38:58;;;;;;;5.80;5.40;;;22.20;99.90;;;;;;6184373;23;20005;-81
2022/08/29 02:41:23;;;;;;;7.05;6.22;;;22.20;99.90;;;;;;6182629;23;20024;-80
2022/08/29 02:43:49;;;;;;;5.53;5.13;;;22.20;99.90;;;;;;6184026;23;20422;-80
2022/08/29 02:46:17;;;;;;;6.15;5.05;;;22.10;99.90;;;;;;6184132;23;20346;-80
2022/08/29 02:48:44;;;;;;;6.13;5.43;;;22.10;99.90;;;;;;6183869;23;20001;-80
2022/08/29 02:51:10;;;;;;;5.65;5.15;;;22.10;99.90;;;;;;6184080;23;20001;-81
2022/08/29 02:53:36;;;;;;;6.53;5.93;;;22.10;99.90;;;;;;6184184;23;20001;-80
2022/08/29 02:56:02;;;;;;;5.25;4.90;;;22.10;99.90;;;;;;6184257;23;20012;-80
2022/08/29 02:58:27;;;;;;;6.28;5.78;;;22.10;99.90;;;;;;6183993;23;20015;-80
2022/08/29 03:00:53;;;;;;;5.82;5.43;;;22.00;99.90;;;;;;6184347;23;20396;-80
2022/08/29 03:03:20;;;;;;;5.90;5.30;;;22.00;99.90;;;;;;6184065;23;20012;-81
2022/08/29 03:05:46;;;;;;;6.18;5.68;;;21.90;99.90;;;;;;6182277;23;20539;-81
2022/08/29 03:08:13;;;;;;;5.30;4.90;;;21.90;99.90;;;;;;6182590;23;20009;-80
2022/08/29 03:10:40;;;;;;;5.25;4.88;;;21.90;99.90;;;;;;6182429;23;20500;-80
2022/08/29 03:13:06;;;;;;;6.25;5.53;;;21.90;99.90;;;;;;6182335;23;20005;-80
2022/08/29 03:15:32;;;;;;;8.07;5.60;;;21.90;99.90;;;;;;6183911;23;20079;-80
2022/08/29 03:17:58;;;;;;;6.55;6.00;;;21.90;99.90;;;;;;6184088;23;20004;-80
2022/08/29 03:20:24;;;;;;;5.78;5.28;;;21.90;99.90;;;;;;6183640;23;20012;-80
2022/08/29 03:22:52;;;;;;;7.63;5.90;;;21.90;99.90;;;;;;6183894;23;20353;-80
2022/08/29 03:25:20;;;;;;;6.45;5.38;;;21.90;99.90;;;;;;6183996;23;20315;-80
2022/08/29 03:27:46;;;;;;;5.93;5.53;;;21.90;99.90;;;;;;6184015;23;20063;-80
2022/08/29 03:30:14;;;;;;;6.32;5.72;;;22.00;99.90;;;;;;6181947;23;20071;-80
2022/08/29 03:32:40;;;;;;;10.98;4.88;;;22.00;99.90;;;;;;6183767;23;20025;-80
2022/08/29 03:35:07;;;;;;;6.18;5.68;;;21.90;99.90;;;;;;6184034;23;19997;-80
2022/08/29 03:37:34;;;;;;;5.63;5.22;;;21.90;99.90;;;;;;6182128;23;20426;-80
2022/08/29 03:40:00;;;;;;;6.88;6.18;;;21.90;99.90;;;;;;6183485;23;20028;-80
2022/08/29 03:42:26;;;;;;;6.03;5.53;;;21.90;99.90;;;;;;6183891;23;20009;-80
2022/08/29 03:44:52;;;;;;;7.50;5.95;;;22.00;99.90;;;;;;6183660;23;20016;-80
2022/08/29 03:47:17;;;;;;;6.60;5.97;;;22.00;99.90;;;;;;6182000;23;20009;-80
2022/08/29 03:49:43;;;;;;;6.00;5.30;;;22.00;99.90;;;;;;6183379;23;20073;-80
2022/08/29 03:52:09;;;;;;;6.15;5.53;;;22.00;99.90;;;;;;6183538;23;20088;-81
2022/08/29 03:54:36;;;;;;;6.50;5.93;;;21.90;99.90;;;;;;6182015;23;20001;-80
2022/08/29 03:57:06;;;;;;;6.65;6.03;;;21.90;99.90;;;;;;6183694;23;20071;-81
2022/08/29 03:59:33;;;;;;;7.53;5.60;;;21.90;99.90;;;;;;6182066;23;20400;-80
2022/08/29 04:01:58;;;;;;;6.15;5.65;;;21.80;99.90;;;;;;6181872;23;20016;-80
2022/08/29 04:07:14;;;;;;;7.32;5.65;;;21.80;99.90;;;;;;6183570;23;20015;-80
2022/08/29 04:09:40;;;;;;;8.73;6.20;;;21.80;99.90;;;;;;6157085;23;20127;-80
2022/08/29 04:12:09;;;;;;;6.80;6.10;;;21.80;99.90;;;;;;6183711;23;19996;-80
2022/08/29 04:14:34;;;;;;;6.50;6.00;;;21.80;99.90;;;;;;6157170;23;20012;-80
2022/08/29 04:17:00;;;;;;;6.13;5.53;;;21.80;99.90;;;;;;6156841;23;20088;-80
2022/08/29 04:19:26;;;;;;;5.90;5.50;;;21.80;99.90;;;;;;6183432;23;20052;-80
2022/08/29 04:21:52;;;;;;;6.95;5.65;;;21.70;99.90;;;;;;6157028;23;20340;-80
2022/08/29 04:24:18;;;;;;;6.45;5.95;;;21.70;99.90;;;;;;6183232;23;20009;-80
2022/08/29 04:26:44;;;;;;;6.07;5.57;;;21.70;99.90;;;;;;6157123;23;20001;-80
2022/08/29 04:29:12;;;;;;;6.70;5.82;;;21.70;99.90;;;;;;6156724;23;20013;-80
2022/08/29 04:31:40;;;;;;;6.47;5.95;;;21.60;99.90;;;;;;6183364;23;20396;-80
2022/08/29 04:34:07;;;;;;;8.55;6.07;;;21.60;99.90;;;;;;6183274;23;20080;-80
2022/08/29 04:36:34;;;;;;;6.97;6.28;;;21.50;99.90;;;;;;6183415;23;20001;-80
2022/08/29 04:39:00;;;;;;;6.18;5.68;;;21.50;99.90;;;;;;6183128;23;19997;-80
2022/08/29 04:41:26;;;;;;;7.68;6.72;;;21.50;99.90;;;;;;6183268;23;20080;-81
2022/08/29 04:43:52;;;;;;;6.00;5.60;;;21.40;99.90;;;;;;6183481;23;20084;-81
2022/08/29 04:46:18;;;;;;;6.97;6.38;;;21.40;99.90;;;;;;6156769;23;20001;-80
2022/08/29 04:48:43;;;;;;;15.85;6.55;;;21.40;99.90;;;;;;6156829;23;20013;-80
2022/08/29 04:51:09;;;;;;;5.93;5.30;;;21.40;99.90;;;;;;6157191;23;20008;-80
2022/08/29 04:53:36;;;;;;;9.20;5.95;;;21.50;99.90;;;;;;6183230;23;19997;-80
2022/08/29 04:56:05;;;;;;;6.90;6.25;;;21.50;99.90;;;;;;6156900;23;20016;-80
2022/08/29 04:58:33;;;;;;;10.70;6.05;;;21.50;99.90;;;;;;6183117;23;20129;-80
2022/08/29 05:00:58;;;;;;;12.68;6.38;;;21.50;99.90;;;;;;6183326;23;20005;-81
2022/08/29 05:03:24;;;;;;;7.20;6.50;;;21.50;99.90;;;;;;6156674;23;20092;-80
2022/08/29 05:06:05;;;;;;;7.25;6.55;;;21.50;99.90;;;;;;6175614;23;20342;-80
2022/08/29 05:08:33;;;;;;;7.25;5.88;;;21.50;99.90;;;;;;6182899;23;20008;-80
2022/08/29 05:10:59;;;;;;;6.53;5.90;;;21.50;99.90;;;;;;6184914;23;20001;-80
2022/08/29 05:13:24;;;;;;;6.47;5.97;;;21.50;99.90;;;;;;6184896;23;20001;-80
2022/08/29 05:15:50;;;;;;;7.32;6.20;;;21.50;99.90;;;;;;6185060;23;20047;-81
2022/08/29 05:18:17;;;;;;;6.15;5.70;;;21.50;99.90;;;;;;6184966;23;20036;-81
2022/08/29 05:20:45;;;;;;;6.75;6.10;;;21.50;99.90;;;;;;6184917;23;20001;-80
2022/08/29 05:23:12;;;;;;;6.05;5.50;;;21.50;99.90;;;;;;6184945;23;20008;-81
2022/08/29 05:25:39;;;;;;;7.80;5.38;;;21.50;99.90;;;;;;6183500;23;20028;-80
2022/08/29 05:28:05;;;;;;;7.07;6.30;;;21.60;99.90;;;;;;6183094;23;20441;-80
2022/08/29 05:30:31;;;;;;;6.93;5.60;;;21.60;99.90;;;;;;6183020;23;20104;-81
2022/08/29 05:32:58;;;;;;;7.05;6.18;;;21.60;99.90;;;;;;6183098;23;20024;-81
2022/08/29 05:35:25;;;;;;;16.50;6.20;;;21.60;99.90;;;;;;6184064;23;20092;-81
2022/08/29 05:37:50;;;;;;;6.55;5.97;;;21.60;99.90;;;;;;6186113;23;20008;-81
2022/08/29 05:40:16;;;;;;;6.95;6.25;;;21.60;99.90;;;;;;6184724;23;20004;-81
2022/08/29 05:42:42;;;;;;;6.10;5.50;;;21.70;99.90;;;;;;6184828;23;20032;-81
2022/08/29 05:45:09;;;;;;;6.10;5.60;;;21.70;99.90;;;;;;6186582;23;20449;-81
2022/08/29 05:47:35;;;;;;;8.48;7.25;;;21.80;99.90;;;;;;6186476;23;20008;-81
2022/08/29 05:50:01;;;;;;;7.43;6.72;;;21.80;99.90;;;;;;6184401;23;20005;-81
2022/08/29 05:52:27;;;;;;;6.85;5.90;;;21.90;99.90;;;;;;6184781;23;20001;-81
2022/08/29 05:54:53;;;;;;;7.28;6.57;;;21.90;99.90;;;;;;6186493;23;20472;-80
2022/08/29 05:57:21;;;;;;;6.47;6.00;;;22.00;99.90;;;;;;6184565;23;20005;-81
2022/08/29 05:59:49;;;;;;;7.30;5.90;;;22.00;99.90;;;;;;6184773;23;20056;-81
2022/08/29 06:02:16;;;;;;;6.97;6.38;;;22.00;99.90;;;;;;6184810;23;20088;-81
2022/08/29 06:04:41;;;;;;;6.88;5.55;;;22.00;99.90;;;;;;6184514;23;20017;-80
2022/08/29 06:07:08;;;;;;;9.98;6.70;;;22.00;99.90;;;;;;6184794;23;20052;-81
2022/08/29 06:09:35;;;;;;;7.28;6.57;;;22.10;99.90;;;;;;6186245;23;20020;-80
2022/08/29 06:12:01;;;;;;;6.78;6.18;;;22.10;99.90;;;;;;6184640;23;20005;-81
2022/08/29 06:14:27;;;;;;;7.72;6.13;;;22.20;99.90;;;;;;6186287;23;20318;-81
2022/08/29 06:16:54;;;;;;;7.07;6.20;;;22.20;99.90;;;;;;6186188;23;20032;-81
2022/08/29 06:19:20;;;;;;;6.68;6.05;;;22.30;99.90;;;;;;6183983;23;20136;-81
2022/08/29 06:21:46;;;;;;;7.28;6.22;;;22.40;99.90;;;;;;6184569;23;20441;-80
2022/08/29 06:24:12;;;;;;;8.20;5.72;;;22.40;99.90;;;;;;6185807;23;20015;-81
2022/08/29 06:26:38;;;;;;;6.70;6.10;;;22.50;99.90;;;;;;6185657;23;20005;-80
2022/08/29 06:29:06;;;;;;;8.60;5.70;;;22.50;99.90;;;;;;6183752;23;20001;-81
2022/08/29 06:31:31;;;;;;;7.40;6.13;;;22.50;99.90;;;;;;6184155;23;20008;-79
2022/08/29 06:33:59;;;;;;;6.38;5.85;;;22.60;99.90;;;;;;6182664;23;20005;-80
2022/08/29 06:36:27;;;;;;;6.50;5.85;;;22.60;99.90;;;;;;6182302;23;20430;-80
2022/08/29 06:38:57;;;;;;;6.03;5.32;;;22.60;99.90;;;;;;6184002;23;20008;-81
2022/08/29 06:41:24;;;;;;;5.90;5.45;;;22.70;99.90;;;;;;6182756;23;20005;-81
2022/08/29 06:44:10;;;;;;;7.13;5.78;;;22.70;99.90;;;;;;6182422;23;20009;-81
2022/08/29 06:46:42;;;;;;;6.07;5.57;;;22.80;99.90;;;;;;6184297;23;20008;-79
2022/08/29 06:49:11;;;;;;;10.23;5.97;;;22.80;99.90;;;;;;6182821;23;20036;-79
2022/08/29 06:51:39;;;;;;;6.50;5.90;;;22.80;99.90;;;;;;6182694;23;20028;-79
2022/08/29 06:54:06;;;;;;;6.68;5.85;;;22.90;99.90;;;;;;6182774;23;20005;-79
2022/08/29 06:56:32;;;;;;;6.10;5.50;;;22.90;99.90;;;;;;6182753;23;20464;-79
2022/08/29 06:58:58;;;;;;;6.45;5.88;;;23.00;99.90;;;;;;6184021;23;19997;-79
2022/08/29 07:01:27;;;;;;;6.30;5.30;;;23.00;99.90;;;;;;6182759;23;20071;-79
2022/08/29 07:03:55;;;;;;;6.03;5.53;;;23.10;99.90;;;;;;6184028;23;20012;-79
2022/08/29 07:06:22;;;;;;;5.68;5.28;;;23.10;99.90;;;;;;6184217;23;20453;-79
2022/08/29 07:08:48;;;;;;;7.53;5.57;;;23.20;99.90;;;;;;6182266;23;20016;-79
2022/08/29 07:11:15;;;;;;;6.63;5.72;;;23.20;99.90;;;;;;6182626;23;20001;-79
2022/08/29 07:13:41;;;;;;;10.18;4.80;;;23.30;99.90;;;;;;6185184;23;20001;-79
2022/08/29 07:16:17;;;;;;;6.95;5.22;;;23.30;99.90;;;;;;6184411;23;20008;-78
2022/08/29 07:18:45;;;;;;;5.10;4.70;;;23.30;99.90;;;;;;6183704;23;20096;-79
2022/08/29 07:21:14;;;;;;;5.18;4.78;;;23.40;99.90;;;;;;6183838;23;20001;-79
2022/08/29 07:23:40;;;;;;;6.90;5.10;;;23.40;99.90;;;;;;6183858;23;20009;-79
2022/08/29 07:26:12;;;;;;;5.35;4.85;;;23.40;99.90;;;;;;6185517;23;20385;-79
2022/08/29 07:28:39;;;;;;;5.38;4.80;;;23.50;99.90;;;;;;6185500;23;20057;-79
2022/08/29 07:31:05;;;;;;;5.18;4.88;;;23.50;99.90;;;;;;6184505;23;20001;-78
2022/08/29 07:33:31;;;;;;;6.03;5.30;;;23.50;99.90;;;;;;6182747;23;20078;-79
2022/08/29 07:35:58;;;;;;;4.85;4.45;;;23.60;99.90;;;;;;6183135;23;20073;-78
2022/08/29 07:38:24;;;;;;;5.78;5.18;;;23.60;99.90;;;;;;6182019;23;20036;-78
2022/08/29 07:41:01;;;;;;;7.93;5.30;;;23.60;99.90;;;;;;6181441;23;19997;-78
2022/08/29 07:43:27;;;;;;;4.97;4.53;;;23.70;99.90;;;;;;6180695;23;20072;-79
2022/08/29 07:45:53;;;;;;;6.97;5.03;;;23.70;99.90;;;;;;6180611;23;20374;-79
2022/08/29 07:48:20;;;;;;;6.07;4.78;;;23.80;99.90;;;;;;6180013;23;20005;-78
2022/08/29 07:50:47;;;;;;;6.55;5.93;;;23.80;99.90;;;;;;6179738;23;20009;-78
2022/08/29 07:53:13;;;;;;;5.93;5.32;;;23.80;99.90;;;;;;6179937;23;20072;-78
2022/08/29 07:55:38;;;;;;;6.40;5.88;;;23.90;99.90;;;;;;6179106;23;20083;-78
2022/08/29 07:58:04;;;;;;;8.35;5.35;;;23.90;99.90;;;;;;6180514;23;20005;-78
2022/08/29 08:00:30;;;;;;;6.32;5.38;;;24.00;99.90;;;;;;6182163;23;20001;-78
2022/08/29 08:02:56;;;;;;;7.15;5.93;;;24.00;99.90;;;;;;6180623;23;20013;-78
2022/08/29 08:05:22;;;;;;;6.22;5.63;;;24.00;99.90;;;;;;6182588;23;20009;-78
2022/08/29 08:07:48;;;;;;;5.80;5.20;;;24.10;99.90;;;;;;6157378;23;20334;-78
2022/08/29 08:10:16;;;;;;;5.53;4.90;;;24.10;99.90;;;;;;6157101;23;20004;-78
2022/08/29 08:12:43;;;;;;;5.85;5.35;;;24.10;99.90;;;;;;6183556;23;20007;-78
2022/08/29 08:15:09;;;;;;;6.32;5.80;;;24.20;99.90;;;;;;6183694;23;20434;-78
2022/08/29 08:17:35;;;;;;;5.25;4.85;;;24.10;99.90;;;;;;6183730;23;20504;-78
2022/08/29 08:20:03;;;;;;;5.90;5.47;;;24.20;99.90;;;;;;6157089;23;20005;-78
2022/08/29 08:22:29;;;;;;;6.95;5.43;;;24.30;99.90;;;;;;6157191;23;20005;-78
2022/08/29 08:24:55;;;;;;;5.93;5.05;;;24.40;99.90;;;;;;6157159;23;20523;-78
2022/08/29 08:27:21;;;;;;;5.90;5.40;;;24.40;99.90;;;;;;6183424;23;19997;-78
2022/08/29 08:29:46;;;;;;;6.65;5.10;;;24.40;99.90;;;;;;6183321;23;20006;-78
2022/08/29 08:32:12;;;;;;;5.45;4.95;;;24.40;99.90;;;;;;6157329;23;20518;-78
2022/08/29 08:34:38;;;;;;;6.45;5.18;;;24.50;99.90;;;;;;6183477;23;20503;-78
2022/08/29 08:37:08;;;;;;;6.28;5.68;;;24.50;99.90;;;;;;6157193;23;20012;-78
2022/08/29 08:39:35;;;;;;;6.30;5.65;;;24.60;99.90;;;;;;6157120;23;20005;-78
2022/08/29 08:42:08;;;;;;;5.25;4.78;;;24.60;99.90;;;;;;6183580;23;20005;-78
2022/08/29 08:45:21;;;;;;;7.03;5.82;;;24.60;99.90;;;;;;6185369;23;20005;-78
2022/08/29 08:48:01;;;;;;;5.43;5.03;;;24.50;99.90;;;;;;6140933;23;20008;-78
2022/08/29 08:50:44;;;;;;;12.10;4.97;;;24.50;99.90;;;;;;6158800;23;20047;-78
2022/08/29 08:53:34;;;;;;;5.13;4.72;;;24.60;99.90;;;;;;6185362;23;20001;-78
2022/08/29 08:56:10;;;;;;;6.13;5.63;;;24.60;99.90;;;;;;6185121;23;20009;-78
2022/08/29 08:58:45;;;;;;;5.88;5.32;;;24.60;99.90;;;;;;6158805;23;20005;-78
2022/08/29 09:01:57;;;;;;;5.82;5.32;;;24.70;99.90;;;;;;6185374;23;20055;-78
2022/08/29 09:04:50;;;;;;;5.93;5.35;;;24.60;99.90;;;;;;6158705;23;20456;-78
2022/08/29 09:07:54;;;;;;;6.03;5.50;;;24.60;99.90;;;;;;6183722;23;20012;-78
2022/08/29 09:10:38;;;;;;;8.27;5.07;;;24.70;99.90;;;;;;6183398;23;20008;-78
2022/08/29 09:13:25;;;;;;;7.78;5.07;;;24.80;99.90;;;;;;6183506;23;20035;-78
2022/08/29 09:15:54;;;;;;;5.00;4.68;;;24.80;99.90;;;;;;6183233;23;20005;-78
2022/08/29 09:18:28;;;;;;;5.88;5.40;;;24.90;99.90;;;;;;6185077;23;20353;-78
2022/08/29 09:20:55;;;;;;;5.25;4.85;;;24.90;99.90;;;;;;6184912;23;20075;-78
2022/08/29 09:23:42;;;;;;;6.18;5.57;;;24.90;99.90;;;;;;6183579;23;20080;-78
2022/08/29 09:26:08;;;;;;;6.30;5.70;;;25.00;99.90;;;;;;6183590;23;20005;-78
2022/08/29 09:28:34;;;;;;;6.38;5.55;;;25.10;99.90;;;;;;6184866;23;20071;-78
2022/08/29 09:31:19;;;;;;;6.43;5.38;;;25.10;99.90;;;;;;6185028;23;20493;-78
2022/08/29 09:33:51;;;;;;;5.70;5.22;;;25.20;99.90;;;;;;6183237;23;20005;-78
2022/08/29 09:36:43;;;;;;;7.22;6.07;;;25.10;99.90;;;;;;6183366;23;20009;-78
2022/08/29 09:39:35;;;;;;;5.28;4.78;;;25.20;99.90;;;;;;6184933;23;20001;-79
2022/08/29 09:42:10;;;;;;;6.32;5.70;;;25.20;99.90;;;;;;6179164;23;20013;-78
2022/08/29 09:44:36;;;;;;;6.95;6.25;;;25.30;99.90;;;;;;6184638;23;20377;-78
2022/08/29 09:47:10;;;;;;;6.38;5.72;;;25.30;99.90;;;;;;6183327;23;20001;-78
2022/08/29 09:49:38;;;;;;;8.00;6.25;;;25.30;99.90;;;;;;6184691;23;20005;-78
2022/08/29 09:52:14;;;;;;;7.28;6.10;;;25.30;99.90;;;;;;6184687;23;20427;-78
2022/08/29 09:54:40;;;;;;;7.63;6.93;;;25.40;99.90;;;;;;6184558;23;20088;-78
2022/08/29 09:57:17;;;;;;;7.35;6.65;;;25.50;99.90;;;;;;6183262;23;20091;-78
2022/08/29 09:59:49;;;;;;;8.43;7.32;;;25.50;99.90;;;;;;6184584;23;20001;-78
2022/08/29 10:02:37;;;;;;;10.57;7.32;;;25.60;99.90;;;;;;6184710;23;20009;-78
2022/08/29 10:05:06;;;;;;;8.43;7.55;;;25.60;99.90;;;;;;6182814;23;20100;-78
2022/08/29 10:07:50;;;;;;;9.57;7.13;;;25.70;99.90;;;;;;6184503;23;20449;-78
2022/08/29 10:10:20;;;;;;;7.85;7.05;;;25.80;99.90;;;;;;6184362;23;20005;-78
2022/08/29 10:13:14;;;;;;;7.35;6.55;;;25.80;99.90;;;;;;6182969;23;20012;-78
2022/08/29 10:15:41;;;;;;;6.47;5.88;;;25.80;99.90;;;;;;6184526;23;20007;-78
2022/08/29 10:18:28;;;;;;;7.18;6.50;;;25.80;99.90;;;;;;6182770;23;20001;-78
2022/08/29 10:21:06;;;;;;;9.10;6.88;;;25.90;99.90;;;;;;6182866;23;20350;-78
2022/08/29 10:24:09;;;;;;;9.13;6.90;;;26.00;99.90;;;;;;6182812;23;20513;-78
2022/08/29 10:27:05;;;;;;;10.10;8.75;;;26.10;99.90;;;;;;6184365;23;20460;-78
2022/08/29 10:29:50;;;;;;;10.02;8.75;;;26.20;99.90;;;;;;6182903;23;20432;-78
2022/08/29 10:32:45;;;;;;;9.93;7.57;;;26.20;99.90;;;;;;6184217;23;20067;-78
2022/08/29 10:35:40;;;;;;;8.82;6.75;;;26.20;99.90;;;;;;6184218;23;20456;-78
2022/08/29 10:38:26;;;;;;;11.68;8.23;;;26.30;99.90;;;;;;6151403;23;20005;-78
2022/08/29 10:41:00;;;;;;;8.70;7.03;;;26.40;99.90;;;;;;6184529;23;20025;-78
2022/08/29 10:43:45;;;;;;;8.43;6.65;;;26.60;99.90;;;;;;6182688;23;20100;-78
2022/08/29 10:46:32;;;;;;;8.65;7.07;;;26.70;99.90;;;;;;6184186;23;20001;-78
2022/08/29 10:49:00;;;;;;;8.77;7.65;;;26.70;99.90;;;;;;6184222;23;20025;-78
2022/08/29 10:51:35;;;;;;;7.18;6.47;;;26.70;99.90;;;;;;6182685;23;20015;-78
2022/08/29 10:54:23;;;;;;;8.88;7.93;;;26.70;99.90;;;;;;6184230;23;20005;-78
2022/08/29 10:56:50;;;;;;;8.88;6.35;;;26.90;99.90;;;;;;6182419;23;20001;-78
2022/08/29 10:59:52;;;;;;;8.60;7.78;;;27.10;99.90;;;;;;6184018;23;20084;-78
2022/08/29 11:02:26;;;;;;;9.82;6.22;;;27.30;99.90;;;;;;6184241;23;20008;-78
2022/08/29 11:04:56;;;;;;;9.88;5.60;;;27.40;99.90;;;;;;6183446;23;20014;-78
2022/08/29 11:07:24;;;;;;;5.78;5.15;;;27.50;99.90;;;;;;6183871;23;20051;-78
2022/08/29 11:09:55;;;;;;;6.78;5.95;;;27.50;99.90;;;;;;6183593;23;20007;-78
2022/08/29 11:12:46;;;;;;;6.82;6.18;;;27.70;99.90;;;;;;6183856;23;20024;-78
2022/08/29 11:15:25;;;;;;;7.47;6.72;;;27.60;99.90;;;;;;6131777;23;20430;-78
2022/08/29 11:18:23;;;;;;;8.00;6.93;;;27.40;99.90;;;;;;6183863;23;20001;-78
2022/08/29 11:20:59;;;;;;;6.68;5.57;;;27.20;99.90;;;;;;6183798;23;20376;-78
2022/08/29 11:23:36;;;;;;;8.93;6.68;;;27.10;99.90;;;;;;6183372;23;20036;-78
2022/08/29 11:26:15;;;;;;;6.85;6.25;;;27.10;99.90;;;;;;6157195;23;20005;-78
2022/08/29 11:29:02;;;;;;;9.27;8.35;;;27.00;99.90;;;;;;6183296;23;19997;-78
2022/08/29 11:31:56;;;;;;;6.93;5.93;;;27.10;99.90;;;;;;6183633;23;20035;-78
2022/08/29 11:34:24;;;;;;;6.90;6.22;;;27.20;99.90;;;;;;6183490;23;20114;-78
2022/08/29 11:37:23;;;;;;;8.43;6.18;;;27.30;99.90;;;;;;6181221;23;20035;-78
2022/08/29 11:40:07;;;;;;;9.50;6.43;;;27.50;99.90;;;;;;6183021;23;19997;-78
2022/08/29 11:42:37;;;;;;;6.55;5.93;;;27.50;99.90;;;;;;6157014;23;20346;-78
2022/08/29 11:45:05;;;;;;;6.35;5.75;;;27.50;99.90;;;;;;6181337;23;20099;-78
2022/08/29 11:47:34;;;;;;;10.80;6.00;;;27.50;99.90;;;;;;6151543;23;20039;-78
2022/08/29 11:50:27;;;;;;;7.90;6.40;;;27.70;99.90;;;;;;6176858;23;20083;-78
2022/08/29 11:52:55;;;;;;;6.55;5.97;;;27.90;99.90;;;;;;6152548;23;20009;-77
2022/08/29 11:55:27;;;;;;;8.90;6.13;;;28.00;99.90;;;;;;6178279;23;20020;-77
2022/08/29 11:57:56;;;;;;;7.63;6.65;;;28.10;99.90;;;;;;6150670;23;20005;-77
2022/08/29 12:00:36;;;;;;;9.38;5.88;;;28.10;99.90;;;;;;6152502;23;20047;-76
2022/08/29 12:03:04;;;;;;;6.82;5.97;;;28.20;99.90;;;;;;6150310;23;20418;-78
2022/08/29 12:05:58;;;;;;;6.90;6.20;;;28.40;99.90;;;;;;6177714;23;20059;-78
2022/08/29 12:08:38;;;;;;;7.78;6.93;;;28.60;99.90;;;;;;6176693;23;20088;-78
2022/08/29 12:11:05;;;;;;;7.60;6.53;;;28.60;99.90;;;;;;6177610;23;19993;-75
2022/08/29 12:13:46;;;;;;;6.22;5.72;;;28.60;99.90;;;;;;6178687;23;20008;-77
2022/08/29 12:16:47;;;;;;;8.85;6.03;;;28.80;99.90;;;;;;6178285;23;20005;-76
2022/08/29 12:19:50;;;;;;;6.82;6.00;;;28.70;99.90;;;;;;6169311;23;20015;-77
2022/08/29 12:22:50;;;;;;;8.10;6.38;;;28.80;99.90;;;;;;6180067;23;20009;-77
2022/08/29 12:25:22;;;;;;;11.30;6.75;;;28.90;99.90;;;;;;6152846;23;20009;-76
2022/08/29 12:28:26;;;;;;;9.02;7.10;;;29.00;99.90;;;;;;6179804;23;20041;-76
2022/08/29 12:30:58;;;;;;;6.80;6.10;;;29.10;99.90;;;;;;6099320;23;20042;-76
2022/08/29 12:33:49;;;;;;;6.95;6.25;;;29.30;99.90;;;;;;6180447;23;20001;-76
2022/08/29 12:36:58;;;;;;;7.13;6.43;;;29.20;99.90;;;;;;6184145;23;20052;-79
2022/08/29 12:39:49;;;;;;;8.65;5.80;;;29.10;99.90;;;;;;6183700;23;20052;-79
2022/08/29 12:42:35;;;;;;;6.20;5.60;;;29.30;99.90;;;;;;6182888;23;20005;-80
2022/08/29 12:45:09;;;;;;;6.15;5.55;;;29.30;99.90;;;;;;6182634;23;20000;-79
2022/08/29 12:47:43;;;;;;;6.35;5.75;;;29.30;99.90;;;;;;6182861;23;20021;-79
2022/08/29 12:50:25;;;;;;;5.60;4.95;;;29.20;99.90;;;;;;6182969;23;20001;-79
2022/08/29 12:53:17;;;;;;;4.93;4.45;;;29.40;99.90;;;;;;6182909;23;20055;-79
2022/08/29 12:55:50;;;;;;;5.38;4.90;;;29.40;99.90;;;;;;6158141;23;20001;-79
2022/08/29 12:58:33;;;;;;;5.13;4.35;;;29.40;99.90;;;;;;6184987;23;19997;-79
2022/08/29 13:00:59;;;;;;;4.45;4.07;;;29.50;99.90;;;;;;6185294;23;20024;-79
2022/08/29 13:03:24;;;;;;;5.18;4.68;;;29.60;99.90;;;;;;6184965;23;20299;-79
2022/08/29 13:05:50;;;;;;;6.55;5.15;;;29.80;99.90;;;;;;6184952;23;20009;-79
2022/08/29 13:08:32;;;;;;;5.35;4.95;;;29.90;99.90;;;;;;6185159;23;20080;-79
2022/08/29 13:11:19;;;;;;;5.10;4.70;;;29.90;99.90;;;;;;6184780;23;20285;-79
2022/08/29 13:13:45;;;;;;;5.07;4.57;;;29.90;99.90;;;;;;6184531;23;20461;-79
2022/08/29 13:16:27;;;;;;;5.07;4.50;;;30.00;99.90;;;;;;6184898;23;20001;-79